Time;durP1;ratioP1;P1;durP2;ratioP2;P2;SDS_P1;SDS_P2;PMS_P1;PMS_P2;Temp;Humidity;BMP_temperature;BMP_pressure;BME280_temperature;BME280_humidity;BME280_pressure;Samples;Min_cycle;Max_cycle;Signal;HPM_P1;HPM_P2
2021/03/16 00:02:21;;;;;;;4.90;3.17;;;4.70;39.10;;;;;;5049534;28;20202;-72
2021/03/16 00:04:47;;;;;;;5.50;3.30;;;4.70;39.00;;;;;;5050805;28;20202;-72
2021/03/16 00:07:12;;;;;;;7.10;3.20;;;4.70;38.80;;;;;;5051224;28;20175;-72
2021/03/16 00:09:38;;;;;;;4.17;3.20;;;;;;;;;;5048933;28;20231;-72
2021/03/16 00:12:04;;;;;;;5.80;3.13;;;4.70;38.50;;;;;;5049318;28;20221;-72
2021/03/16 00:14:30;;;;;;;3.63;2.63;;;4.70;39.50;;;;;;5050474;28;20413;-72
2021/03/16 00:16:55;;;;;;;6.73;3.90;;;4.60;39.20;;;;;;5049496;28;20466;-71
2021/03/16 00:19:21;;;;;;;18.03;3.47;;;4.60;39.40;;;;;;5050182;28;20182;-71
2021/03/16 00:21:47;;;;;;;4.77;3.30;;;4.60;39.70;;;;;;5050522;28;20199;-72
2021/03/16 00:24:13;;;;;;;6.53;4.10;;;4.60;40.30;;;;;;5050818;28;20615;-71
2021/03/16 00:26:38;;;;;;;5.40;3.93;;;4.60;40.00;;;;;;5050486;28;20559;-71
2021/03/16 00:29:05;;;;;;;4.27;3.00;;;4.60;39.40;;;;;;5050099;28;20175;-71
2021/03/16 00:31:30;;;;;;;8.45;3.15;;;4.60;39.00;;;;;;5050817;28;20174;-72
2021/03/16 00:33:56;;;;;;;4.97;3.47;;;4.60;39.50;;;;;;5050617;28;20175;-71
2021/03/16 00:36:21;;;;;;;3.33;3.00;;;4.60;39.10;;;;;;5050451;28;20187;-72
2021/03/16 00:38:47;;;;;;;5.83;3.30;;;4.60;39.20;;;;;;5048485;28;20178;-71
2021/03/16 00:41:13;;;;;;;4.85;3.33;;;4.70;38.90;;;;;;5049183;28;20214;-71
2021/03/16 00:43:39;;;;;;;8.00;3.20;;;4.70;38.50;;;;;;5050285;28;20249;-71
2021/03/16 00:46:04;;;;;;;2.90;2.40;;;4.70;38.30;;;;;;5049233;28;20752;-72
2021/03/16 00:48:30;;;;;;;4.53;3.13;;;4.70;37.90;;;;;;5049135;28;20380;-71
2021/03/16 00:50:56;;;;;;;6.70;3.37;;;4.70;38.60;;;;;;5049996;28;20171;-72
2021/03/16 00:53:22;;;;;;;4.20;3.17;;;4.70;38.40;;;;;;5050398;28;20221;-72
2021/03/16 00:55:47;;;;;;;4.93;3.97;;;4.70;38.80;;;;;;5050429;28;21068;-71
2021/03/16 00:58:13;;;;;;;4.43;2.97;;;4.60;38.80;;;;;;5049636;28;20178;-71
2021/03/16 01:00:39;;;;;;;3.73;3.17;;;4.60;38.50;;;;;;5051285;28;20652;-72
2021/03/16 01:03:05;;;;;;;4.00;2.87;;;4.60;38.90;;;;;;5054873;28;20206;-72
2021/03/16 01:05:33;;;;;;;3.55;2.95;;;4.60;38.90;;;;;;5054696;28;20174;-72
2021/03/16 01:07:59;;;;;;;4.97;3.25;;;4.60;39.10;;;;;;5055338;28;20175;-71
2021/03/16 01:10:25;;;;;;;4.10;3.23;;;4.60;39.30;;;;;;5057000;28;20321;-72
2021/03/16 01:12:51;;;;;;;3.53;3.22;;;4.60;39.00;;;;;;5053014;28;20199;-72
2021/03/16 01:15:16;;;;;;;3.90;3.37;;;4.50;39.00;;;;;;5052877;28;20178;-72
2021/03/16 01:17:42;;;;;;;6.73;2.60;;;4.50;38.70;;;;;;5053808;28;20170;-72
2021/03/16 01:20:13;;;;;;;4.00;3.67;;;4.60;38.30;;;;;;5052144;28;20540;-72
2021/03/16 01:22:39;;;;;;;4.65;3.17;;;4.60;38.30;;;;;;5053717;28;20182;-72
2021/03/16 01:25:05;;;;;;;3.97;2.80;;;4.50;38.30;;;;;;5053962;28;20213;-73
2021/03/16 01:27:31;;;;;;;3.20;2.90;;;4.50;38.40;;;;;;5052268;28;20860;-72
2021/03/16 01:29:57;;;;;;;5.20;3.20;;;4.50;38.30;;;;;;5053399;28;20257;-72
2021/03/16 01:32:22;;;;;;;4.00;3.00;;;4.60;38.40;;;;;;5051944;28;20199;-72
2021/03/16 01:34:48;;;;;;;4.87;3.57;;;4.60;38.30;;;;;;5053609;28;20253;-72
2021/03/16 01:37:13;;;;;;;3.60;2.77;;;4.50;37.10;;;;;;5053393;28;20182;-73
2021/03/16 01:39:39;;;;;;;4.00;3.70;;;4.50;37.70;;;;;;5052759;28;20193;-73
2021/03/16 01:42:04;;;;;;;5.30;3.70;;;4.50;37.70;;;;;;5053278;28;20207;-72
2021/03/16 01:44:30;;;;;;;5.57;3.53;;;4.50;38.40;;;;;;5053521;28;20680;-73
2021/03/16 01:46:56;;;;;;;7.10;3.57;;;4.50;38.40;;;;;;5057280;28;20258;-72
2021/03/16 01:49:21;;;;;;;5.43;3.60;;;4.60;38.10;;;;;;5057404;28;20206;-72
2021/03/16 01:51:47;;;;;;;4.00;3.60;;;4.50;37.70;;;;;;5053228;28;20256;-72
2021/03/16 01:54:13;;;;;;;3.70;3.40;;;4.50;37.80;;;;;;5053404;28;20179;-72
2021/03/16 01:56:41;;;;;;;4.83;3.37;;;4.50;38.30;;;;;;5052363;28;20532;-72
2021/03/16 01:59:07;;;;;;;3.88;2.97;;;4.40;38.70;;;;;;5052389;28;20266;-72
2021/03/16 02:01:32;;;;;;;3.50;3.20;;;4.40;38.90;;;;;;5053111;28;20614;-72
2021/03/16 02:03:58;;;;;;;3.97;3.57;;;4.30;39.10;;;;;;5052954;28;21029;-72
2021/03/16 02:06:46;;;;;;;8.37;4.30;;;4.20;39.40;;;;;;5052837;28;20193;-72
2021/03/16 02:09:21;;;;;;;6.82;4.38;;;4.20;39.90;;;;;;5052240;28;20551;-72
2021/03/16 02:12:06;;;;;;;4.00;3.33;;;4.10;40.10;;;;;;5051967;28;20190;-72
2021/03/16 02:14:44;;;;;;;4.05;3.75;;;4.10;40.40;;;;;;5053268;28;20182;-72
2021/03/16 02:17:16;;;;;;;6.13;4.40;;;4.10;40.60;;;;;;5051620;28;20183;-72
2021/03/16 02:20:19;;;;;;;6.28;4.85;;;4.10;40.80;;;;;;5050811;28;20264;-72
2021/03/16 02:22:45;;;;;;;7.25;4.03;;;4.00;40.30;;;;;;5051920;28;20201;-72
2021/03/16 02:25:37;;;;;;;7.18;4.22;;;4.10;40.80;;;;;;5052951;28;20213;-72
2021/03/16 02:28:13;;;;;;;9.25;5.10;;;4.10;40.80;;;;;;5052967;28;20177;-72
2021/03/16 02:30:42;;;;;;;4.70;3.72;;;4.10;40.60;;;;;;5052454;28;20256;-72
2021/03/16 02:33:11;;;;;;;5.65;4.57;;;4.10;40.80;;;;;;5052931;28;20285;-72
2021/03/16 02:35:39;;;;;;;5.60;4.03;;;4.10;40.80;;;;;;5051968;28;20202;-73
2021/03/16 02:38:07;;;;;;;11.02;4.35;;;4.10;40.80;;;;;;5053820;28;20175;-72
2021/03/16 02:40:35;;;;;;;4.43;3.92;;;4.10;40.50;;;;;;5052114;28;20182;-72
2021/03/16 02:43:03;;;;;;;4.72;3.67;;;4.10;40.40;;;;;;5051943;28;20206;-73
2021/03/16 02:45:34;;;;;;;4.50;3.50;;;4.10;40.50;;;;;;5052101;28;20603;-73
2021/03/16 02:48:01;;;;;;;4.75;3.60;;;4.10;40.50;;;;;;5053404;28;20173;-72
2021/03/16 02:50:27;;;;;;;6.53;3.55;;;4.10;40.00;;;;;;5053056;28;20185;-72
2021/03/16 02:52:54;;;;;;;4.75;3.95;;;4.00;40.40;;;;;;5053698;28;20194;-72
2021/03/16 02:55:21;;;;;;;3.83;2.95;;;4.00;40.00;;;;;;5053094;28;20179;-72
2021/03/16 02:57:48;;;;;;;7.82;4.05;;;4.00;40.60;;;;;;5053070;28;20198;-72
2021/03/16 03:00:15;;;;;;;7.90;3.63;;;4.00;45.80;;;;;;5052361;28;20249;-72
2021/03/16 03:02:40;;;;;;;6.13;4.07;;;4.00;47.90;;;;;;5052801;28;20187;-72
2021/03/16 03:05:08;;;;;;;4.67;3.60;;;3.90;52.30;;;;;;5052513;28;20209;-72
2021/03/16 03:07:38;;;;;;;8.00;4.25;;;4.00;54.70;;;;;;5051367;28;20368;-72
2021/03/16 03:10:04;;;;;;;4.28;3.88;;;;;;;;;;5052461;28;20641;-72
2021/03/16 03:12:30;;;;;;;3.95;3.55;;;3.80;41.00;;;;;;5052823;28;20191;-73
2021/03/16 03:14:55;;;;;;;5.13;3.70;;;3.90;42.00;;;;;;5051820;28;20595;-72
2021/03/16 03:17:21;;;;;;;5.77;3.87;;;3.80;41.40;;;;;;5053393;28;20663;-72
2021/03/16 03:19:46;;;;;;;5.57;3.23;;;3.80;42.00;;;;;;5051488;28;20182;-73
2021/03/16 03:22:30;;;;;;;9.07;3.37;;;3.80;42.20;;;;;;5053386;28;20198;-73
2021/03/16 03:25:00;;;;;;;8.48;4.38;;;3.90;42.30;;;;;;5051628;28;20218;-73
2021/03/16 03:27:39;;;;;;;8.45;4.38;;;3.90;42.00;;;;;;5051727;28;20261;-73
2021/03/16 03:30:06;;;;;;;4.80;3.72;;;3.90;41.40;;;;;;5050601;28;20687;-72
2021/03/16 03:32:33;;;;;;;3.85;3.00;;;3.90;41.50;;;;;;5052790;28;20199;-72
2021/03/16 03:35:01;;;;;;;8.30;3.88;;;3.90;41.30;;;;;;5053007;28;20178;-72
2021/03/16 03:37:29;;;;;;;5.72;3.67;;;3.90;42.00;;;;;;5052997;28;20185;-73
2021/03/16 03:39:56;;;;;;;3.63;2.97;;;3.80;41.70;;;;;;5051692;28;20656;-73
2021/03/16 03:42:22;;;;;;;5.53;3.72;;;3.80;41.20;;;;;;5052837;28;20363;-72
2021/03/16 03:44:49;;;;;;;7.83;3.07;;;3.80;41.20;;;;;;5055094;28;20214;-72
2021/03/16 03:47:16;;;;;;;3.88;3.33;;;3.80;42.20;;;;;;5055393;28;20490;-73
2021/03/16 03:49:43;;;;;;;6.57;3.35;;;3.80;41.60;;;;;;5051476;28;20644;-72
2021/03/16 03:52:11;;;;;;;8.50;3.05;;;3.80;41.20;;;;;;5051531;28;20210;-73
2021/03/16 03:54:40;;;;;;;4.88;3.17;;;3.80;41.30;;;;;;5051632;28;20232;-73
2021/03/16 03:57:07;;;;;;;3.38;3.05;;;3.80;41.10;;;;;;5051704;28;20174;-73
2021/03/16 03:59:33;;;;;;;4.32;3.30;;;3.80;41.40;;;;;;5049661;28;20269;-73
2021/03/16 04:01:59;;;;;;;3.90;3.30;;;3.70;41.10;;;;;;5051621;28;20294;-73
2021/03/16 04:04:28;;;;;;;4.20;3.70;;;3.70;42.20;;;;;;5051486;28;20457;-73
2021/03/16 04:06:54;;;;;;;5.30;3.13;;;3.70;41.60;;;;;;5051178;28;20229;-73
2021/03/16 04:09:20;;;;;;;5.32;3.47;;;3.70;41.20;;;;;;5049838;28;20656;-73
2021/03/16 04:11:47;;;;;;;6.50;3.20;;;3.70;41.20;;;;;;5051376;28;20199;-73
2021/03/16 04:14:13;;;;;;;5.10;3.33;;;3.70;41.30;;;;;;5051125;28;20190;-73
2021/03/16 04:16:40;;;;;;;3.92;3.45;;;3.80;41.10;;;;;;5051126;28;20296;-72
2021/03/16 04:19:06;;;;;;;4.70;2.88;;;3.80;40.70;;;;;;5050236;28;20183;-72
2021/03/16 04:21:32;;;;;;;10.10;3.42;;;3.80;40.40;;;;;;5049607;28;20182;-72
2021/03/16 04:23:58;;;;;;;3.17;2.87;;;3.80;40.40;;;;;;5049323;28;20202;-72
2021/03/16 04:26:23;;;;;;;3.73;2.20;;;3.80;40.40;;;;;;5049580;28;20236;-72
2021/03/16 04:28:49;;;;;;;6.20;3.77;;;3.90;39.80;;;;;;5050448;28;20922;-72
2021/03/16 04:31:15;;;;;;;6.77;3.70;;;3.90;39.50;;;;;;5051184;28;20170;-74
2021/03/16 04:33:40;;;;;;;8.43;4.17;;;3.80;39.80;;;;;;5049346;28;20215;-74
2021/03/16 04:36:06;;;;;;;5.90;2.90;;;3.80;39.80;;;;;;5052284;28;20179;-74
2021/03/16 04:38:32;;;;;;;7.20;4.10;;;3.80;40.00;;;;;;5054507;28;20179;-74
2021/03/16 04:40:57;;;;;;;7.77;3.83;;;3.80;39.90;;;;;;5053088;28;20425;-74
2021/03/16 04:43:23;;;;;;;5.60;3.87;;;3.80;39.60;;;;;;5080667;23;20218;-70
2021/03/16 04:45:48;;;;;;;4.73;3.20;;;3.90;39.40;;;;;;5074487;28;20170;-71
2021/03/16 04:48:14;;;;;;;6.40;4.20;;;3.90;39.00;;;;;;5074366;28;20520;-69
2021/03/16 04:50:39;;;;;;;7.03;3.97;;;3.90;38.60;;;;;;5073630;28;20173;-70
2021/03/16 04:53:05;;;;;;;5.50;3.13;;;3.90;38.30;;;;;;5074663;28;20243;-71
2021/03/16 04:55:30;;;;;;;4.60;3.00;;;3.90;37.20;;;;;;5072949;28;20174;-70
2021/03/16 04:57:56;;;;;;;6.67;3.30;;;3.90;37.20;;;;;;5074073;28;20170;-70
2021/03/16 05:00:22;;;;;;;9.53;3.27;;;4.00;37.30;;;;;;5073641;28;20181;-71
2021/03/16 05:02:47;;;;;;;6.03;2.33;;;3.90;37.20;;;;;;5074006;28;20186;-70
2021/03/16 05:05:14;;;;;;;4.27;3.23;;;3.90;37.20;;;;;;5074104;28;20209;-70
2021/03/16 05:07:39;;;;;;;6.22;3.50;;;3.90;37.20;;;;;;5073996;28;20174;-71
2021/03/16 05:10:05;;;;;;;2.67;2.47;;;3.90;37.20;;;;;;5073517;28;20643;-71
2021/03/16 05:12:31;;;;;;;3.15;2.33;;;4.00;37.30;;;;;;5073766;28;20197;-70
2021/03/16 05:14:56;;;;;;;2.30;2.07;;;3.90;37.20;;;;;;5073888;28;20262;-70
2021/03/16 05:17:22;;;;;;;5.30;2.63;;;3.90;37.20;;;;;;5073681;28;20182;-70
2021/03/16 05:19:47;;;;;;;6.90;2.83;;;4.00;36.90;;;;;;5072154;28;20185;-71
2021/03/16 05:22:13;;;;;;;5.03;2.87;;;4.00;37.00;;;;;;5073646;28;20190;-70
2021/03/16 05:24:38;;;;;;;4.17;2.20;;;4.00;36.60;;;;;;5073499;28;20284;-69
2021/03/16 05:27:04;;;;;;;5.93;3.30;;;3.90;35.90;;;;;;5072413;28;20577;-70
2021/03/16 05:29:30;;;;;;;3.87;2.63;;;3.90;35.70;;;;;;5072873;28;20174;-71
2021/03/16 05:31:55;;;;;;;3.67;2.50;;;3.90;36.10;;;;;;5073491;28;20945;-70
2021/03/16 05:34:21;;;;;;;3.70;2.87;;;3.90;36.30;;;;;;5073300;28;20170;-70
2021/03/16 05:36:47;;;;;;;4.70;2.20;;;3.90;36.80;;;;;;5073304;28;20201;-70
2021/03/16 05:39:12;;;;;;;4.37;2.57;;;4.00;36.80;;;;;;5071398;28;20189;-69
2021/03/16 05:41:40;;;;;;;2.87;1.97;;;4.00;36.20;;;;;;5071955;28;20431;-70
2021/03/16 05:44:09;;;;;;;13.82;2.95;;;4.00;35.80;;;;;;5073064;28;20205;-70
2021/03/16 05:46:39;;;;;;;8.85;3.28;;;4.00;36.30;;;;;;5072138;28;20185;-71
2021/03/16 05:49:08;;;;;;;3.72;1.70;;;3.90;36.60;;;;;;5072538;28;20650;-70
2021/03/16 05:51:34;;;;;;;3.42;2.65;;;3.90;36.90;;;;;;5073025;28;20231;-71
2021/03/16 05:54:00;;;;;;;8.98;2.70;;;3.90;37.20;;;;;;5073509;28;20178;-70
2021/03/16 05:56:27;;;;;;;3.85;2.72;;;4.00;36.60;;;;;;5072955;28;20253;-70
2021/03/16 05:58:53;;;;;;;5.03;2.90;;;4.00;36.50;;;;;;5072296;28;20200;-70
2021/03/16 06:01:18;;;;;;;7.47;2.93;;;4.00;36.20;;;;;;5072780;28;20444;-70
2021/03/16 06:03:47;;;;;;;6.10;2.63;;;4.00;36.40;;;;;;5072685;28;20326;-70
2021/03/16 06:06:13;;;;;;;3.67;2.65;;;4.00;35.90;;;;;;5072770;28;20644;-70
2021/03/16 06:08:38;;;;;;;4.90;2.80;;;4.00;35.60;;;;;;5072896;28;20300;-70
2021/03/16 06:11:06;;;;;;;3.87;2.37;;;4.00;35.80;;;;;;5072091;28;20853;-70
2021/03/16 06:13:32;;;;;;;4.63;2.85;;;4.10;35.70;;;;;;5072577;28;20190;-70
2021/03/16 06:16:12;;;;;;;6.20;3.17;;;4.10;36.00;;;;;;5072809;28;20561;-70
2021/03/16 06:18:41;;;;;;;4.53;2.45;;;4.10;35.60;;;;;;5072538;28;20177;-70
2021/03/16 06:21:07;;;;;;;7.32;2.47;;;4.10;35.70;;;;;;5072058;28;20587;-70
2021/03/16 06:23:34;;;;;;;6.93;2.40;;;4.10;35.50;;;;;;5072772;28;20459;-71
2021/03/16 06:26:01;;;;;;;6.72;3.05;;;4.10;35.40;;;;;;5072842;28;20166;-70
2021/03/16 06:28:35;;;;;;;3.90;1.88;;;4.20;34.70;;;;;;5072458;28;20178;-70
2021/03/16 06:31:00;;;;;;;2.83;2.38;;;4.30;34.50;;;;;;5071952;28;20174;-71
2021/03/16 06:33:28;;;;;;;5.17;3.60;;;4.30;34.50;;;;;;5072647;28;20251;-72
2021/03/16 06:36:03;;;;;;;6.00;3.70;;;4.30;34.80;;;;;;5073973;28;20205;-73
2021/03/16 06:38:29;;;;;;;3.38;2.22;;;4.30;34.80;;;;;;5074685;28;20184;-70
2021/03/16 06:41:07;;;;;;;7.25;4.13;;;4.40;34.10;;;;;;5074645;28;20241;-72
2021/03/16 06:43:32;;;;;;;4.15;2.20;;;4.40;33.90;;;;;;5072722;28;20770;-71
2021/03/16 06:45:58;;;;;;;4.00;2.50;;;4.40;33.40;;;;;;5070789;28;20178;-72
2021/03/16 06:48:25;;;;;;;4.43;2.93;;;4.40;33.50;;;;;;5065350;28;20193;-73
2021/03/16 06:50:52;;;;;;;4.38;2.30;;;4.40;33.20;;;;;;5073721;28;20189;-72
2021/03/16 06:53:20;;;;;;;8.15;2.10;;;4.40;33.70;;;;;;5061891;28;20202;-72
2021/03/16 06:55:57;;;;;;;6.13;2.78;;;4.30;33.20;;;;;;5053094;28;20190;-72
2021/03/16 06:58:24;;;;;;;3.85;2.25;;;4.30;33.20;;;;;;5052754;28;20186;-71
2021/03/16 07:00:50;;;;;;;4.18;2.40;;;4.30;33.20;;;;;;5052981;28;20183;-73
2021/03/16 07:03:17;;;;;;;7.07;2.40;;;4.30;33.60;;;;;;5071062;28;20225;-72
2021/03/16 07:05:44;;;;;;;2.80;2.00;;;4.30;33.70;;;;;;5072886;28;20170;-72
2021/03/16 07:08:12;;;;;;;6.43;2.63;;;4.30;34.30;;;;;;5052949;28;20258;-72
2021/03/16 07:10:40;;;;;;;2.90;2.55;;;4.40;34.90;;;;;;5052416;28;20166;-72
2021/03/16 07:13:07;;;;;;;4.85;2.70;;;4.40;34.60;;;;;;5053090;28;20204;-73
2021/03/16 07:15:34;;;;;;;6.53;2.70;;;4.50;34.70;;;;;;5052353;28;20175;-71
2021/03/16 07:18:00;;;;;;;5.13;3.20;;;4.50;35.00;;;;;;5052577;28;20178;-73
2021/03/16 07:20:34;;;;;;;3.70;2.20;;;4.60;34.90;;;;;;5052769;28;20184;-70
2021/03/16 07:23:01;;;;;;;3.97;2.50;;;4.60;34.90;;;;;;5050904;28;20182;-70
2021/03/16 07:25:27;;;;;;;4.20;2.67;;;4.70;34.60;;;;;;5050770;28;20518;-69
2021/03/16 07:27:53;;;;;;;5.20;2.75;;;4.60;34.70;;;;;;5049389;28;20174;-69
2021/03/16 07:30:20;;;;;;;5.85;3.03;;;4.70;34.40;;;;;;5050168;28;20202;-69
2021/03/16 07:32:46;;;;;;;6.00;2.78;;;4.70;34.50;;;;;;5050489;28;20210;-72
2021/03/16 07:35:12;;;;;;;4.70;2.67;;;4.70;33.80;;;;;;5050622;28;20175;-72
2021/03/16 07:37:38;;;;;;;10.57;3.00;;;4.70;34.40;;;;;;5050467;28;20437;-72
2021/03/16 07:40:06;;;;;;;5.28;2.80;;;4.70;34.80;;;;;;5048732;28;20644;-71
2021/03/16 07:42:34;;;;;;;4.18;2.28;;;4.80;35.00;;;;;;5050230;28;20218;-71
2021/03/16 07:45:00;;;;;;;5.47;3.03;;;4.80;34.50;;;;;;5050389;28;20238;-69
2021/03/16 07:47:34;;;;;;;2.20;2.00;;;4.80;34.60;;;;;;5049656;28;20198;-69
2021/03/16 07:50:02;;;;;;;3.78;2.90;;;4.80;34.50;;;;;;5049937;28;20170;-71
2021/03/16 07:52:27;;;;;;;4.10;2.75;;;4.70;34.60;;;;;;5050307;28;20520;-68
2021/03/16 07:54:53;;;;;;;2.80;2.40;;;4.70;35.30;;;;;;5066324;28;20261;-69
2021/03/16 07:57:27;;;;;;;16.50;3.40;;;4.70;35.30;;;;;;5070898;28;20192;-69
2021/03/16 08:00:06;;;;;;;4.90;2.67;;;4.70;35.60;;;;;;5059217;28;20178;-71
2021/03/16 08:02:33;;;;;;;5.43;3.60;;;4.80;35.00;;;;;;5050337;28;20217;-71
2021/03/16 08:04:59;;;;;;;6.55;3.08;;;4.80;35.10;;;;;;5050050;28;20214;-69
2021/03/16 08:07:29;;;;;;;8.93;3.20;;;4.80;34.80;;;;;;5052697;28;20264;-70
2021/03/16 08:09:57;;;;;;;8.93;2.97;;;4.90;34.90;;;;;;5064706;28;20770;-69
2021/03/16 08:12:30;;;;;;;5.00;2.95;;;4.90;35.10;;;;;;5066307;28;20239;-70
2021/03/16 08:15:08;;;;;;;4.50;3.05;;;5.00;35.40;;;;;;5059514;28;20212;-72
2021/03/16 08:17:35;;;;;;;4.65;3.17;;;5.10;35.60;;;;;;5046248;28;20235;-70
2021/03/16 08:20:02;;;;;;;6.05;2.65;;;5.20;34.90;;;;;;5065774;28;20204;-72
2021/03/16 08:22:28;;;;;;;5.00;3.45;;;5.30;34.50;;;;;;5047615;28;20205;-69
2021/03/16 08:25:03;;;;;;;10.13;3.17;;;5.40;34.30;;;;;;5061662;28;20878;-70
2021/03/16 08:27:29;;;;;;;4.82;3.03;;;5.60;33.50;;;;;;5045965;28;20184;-70
2021/03/16 08:29:56;;;;;;;4.10;2.95;;;5.70;33.10;;;;;;5045731;28;20182;-71
2021/03/16 08:32:22;;;;;;;6.05;3.17;;;5.70;31.70;;;;;;5049321;28;20203;-71
2021/03/16 08:34:49;;;;;;;5.20;3.15;;;5.70;30.10;;;;;;5050164;28;20179;-73
2021/03/16 08:37:32;;;;;;;5.55;3.15;;;5.70;30.70;;;;;;5052078;28;20188;-74
2021/03/16 08:40:00;;;;;;;4.88;3.50;;;5.80;31.60;;;;;;5065713;28;20218;-71
2021/03/16 08:42:28;;;;;;;6.13;3.38;;;6.00;31.10;;;;;;5070704;28;20247;-74
2021/03/16 08:44:54;;;;;;;4.37;2.97;;;6.20;31.20;;;;;;5057344;28;20298;-73
2021/03/16 08:47:23;;;;;;;5.70;3.07;;;6.40;29.30;;;;;;5053059;28;20434;-73
2021/03/16 08:49:51;;;;;;;15.40;4.00;;;6.40;28.90;;;;;;5059440;28;20959;-74
2021/03/16 08:52:20;;;;;;;5.07;2.78;;;6.40;27.90;;;;;;5048323;28;20453;-73
2021/03/16 08:54:46;;;;;;;6.35;3.10;;;6.40;29.30;;;;;;5058854;28;20653;-73
2021/03/16 08:57:22;;;;;;;3.57;3.00;;;6.30;27.50;;;;;;5053456;28;20197;-74
2021/03/16 08:59:49;;;;;;;4.45;3.17;;;6.40;27.20;;;;;;5052237;28;20418;-73
2021/03/16 09:02:29;;;;;;;15.93;3.53;;;6.50;27.80;;;;;;5051760;28;20211;-72
2021/03/16 09:04:58;;;;;;;3.70;2.72;;;6.70;26.40;;;;;;5064263;28;20475;-73
2021/03/16 09:07:30;;;;;;;3.23;2.60;;;6.80;26.40;;;;;;5053246;28;20202;-73
2021/03/16 09:10:07;;;;;;;4.03;3.37;;;6.70;26.50;;;;;;5059062;28;20418;-73
2021/03/16 09:12:35;;;;;;;5.93;2.50;;;6.70;25.80;;;;;;5070643;28;20437;-71
2021/03/16 09:15:11;;;;;;;3.40;2.83;;;6.80;25.60;;;;;;5056904;28;20428;-72
2021/03/16 09:17:39;;;;;;;4.18;3.30;;;6.70;24.60;;;;;;5049685;28;20191;-72
2021/03/16 09:20:11;;;;;;;10.02;3.60;;;6.60;25.30;;;;;;5057219;28;20182;-73
2021/03/16 09:22:37;;;;;;;4.85;3.10;;;6.60;25.80;;;;;;5072102;28;20188;-72
2021/03/16 09:25:04;;;;;;;4.40;2.53;;;6.50;25.70;;;;;;5074161;28;20664;-72
2021/03/16 09:27:30;;;;;;;8.27;2.60;;;6.40;25.90;;;;;;5074110;28;20468;-74
2021/03/16 09:29:56;;;;;;;5.83;3.00;;;6.40;26.00;;;;;;5075306;28;20195;-75
2021/03/16 09:32:22;;;;;;;12.00;4.00;;;6.40;26.10;;;;;;5073957;28;20204;-74
2021/03/16 09:34:47;;;;;;;8.60;3.07;;;6.30;25.80;;;;;;5075412;28;20425;-72
2021/03/16 09:37:15;;;;;;;5.97;3.13;;;6.20;27.20;;;;;;5073299;28;20177;-73
2021/03/16 09:39:58;;;;;;;7.00;2.97;;;6.20;27.20;;;;;;5070692;28;20179;-71
2021/03/16 09:42:34;;;;;;;3.55;2.53;;;6.20;27.30;;;;;;5068638;28;20226;-71
2021/03/16 09:45:02;;;;;;;8.00;3.38;;;6.10;26.90;;;;;;5053379;28;20190;-72
2021/03/16 09:47:28;;;;;;;5.68;3.55;;;6.10;27.50;;;;;;5053080;28;20180;-71
2021/03/16 09:50:08;;;;;;;4.20;3.00;;;6.20;26.90;;;;;;5055654;28;20178;-71
2021/03/16 09:52:33;;;;;;;4.90;2.78;;;6.10;26.10;;;;;;5072575;28;20234;-71
2021/03/16 09:55:00;;;;;;;5.77;3.10;;;6.10;27.00;;;;;;5073249;28;20184;-72
2021/03/16 09:57:31;;;;;;;6.95;3.25;;;6.00;27.70;;;;;;5071601;28;20186;-71
2021/03/16 09:59:58;;;;;;;4.35;3.28;;;5.90;28.60;;;;;;5071366;28;20559;-71
2021/03/16 10:02:31;;;;;;;10.48;2.90;;;6.00;28.30;;;;;;5071353;28;20202;-71
2021/03/16 10:05:06;;;;;;;5.20;3.05;;;6.00;27.90;;;;;;5072848;28;20198;-72
2021/03/16 10:07:32;;;;;;;5.50;3.25;;;5.90;28.90;;;;;;5072760;28;20184;-72
2021/03/16 10:10:12;;;;;;;4.88;2.95;;;6.00;28.70;;;;;;5072336;28;20625;-74
2021/03/16 10:12:39;;;;;;;6.05;3.53;;;6.20;28.70;;;;;;5072944;28;20277;-72
2021/03/16 10:15:06;;;;;;;4.70;2.92;;;6.20;28.40;;;;;;5072618;28;20180;-73
2021/03/16 10:17:32;;;;;;;3.55;3.03;;;6.20;28.50;;;;;;5052423;28;20189;-71
2021/03/16 10:20:07;;;;;;;3.10;2.80;;;6.00;29.00;;;;;;5064395;28;20523;-72
2021/03/16 10:22:35;;;;;;;4.40;3.10;;;5.90;30.60;;;;;;5072189;28;20198;-72
2021/03/16 10:25:09;;;;;;;7.75;3.55;;;5.70;30.00;;;;;;5071980;28;20211;-72
2021/03/16 10:27:35;;;;;;;5.90;3.25;;;5.50;31.90;;;;;;5072324;28;20523;-71
2021/03/16 10:30:06;;;;;;;3.20;2.58;;;5.40;32.40;;;;;;5071649;28;20537;-72
2021/03/16 10:32:31;;;;;;;3.60;2.67;;;5.20;33.50;;;;;;5071893;28;20669;-72
2021/03/16 10:34:57;;;;;;;13.33;2.83;;;4.90;35.10;;;;;;5070315;28;20182;-74
2021/03/16 10:37:24;;;;;;;5.40;2.40;;;4.90;36.30;;;;;;5072071;28;20182;-72
2021/03/16 10:39:51;;;;;;;7.60;3.55;;;5.00;36.20;;;;;;5070218;28;20257;-72
2021/03/16 10:42:16;;;;;;;5.70;3.15;;;5.10;35.50;;;;;;5085218;22;20198;-76
2021/03/16 10:44:42;;;;;;;5.90;3.30;;;5.30;35.50;;;;;;5070374;28;20229;-75
2021/03/16 10:47:11;;;;;;;9.43;3.10;;;5.50;36.10;;;;;;5072705;28;20246;-75
2021/03/16 10:49:37;;;;;;;5.50;3.30;;;5.90;35.40;;;;;;5070443;28;20512;-75
2021/03/16 10:52:03;;;;;;;3.87;2.17;;;6.20;34.00;;;;;;5072425;28;20450;-75
2021/03/16 10:54:29;;;;;;;11.13;2.90;;;6.60;31.70;;;;;;5071908;28;20680;-75
2021/03/16 10:56:55;;;;;;;4.80;2.90;;;6.70;31.20;;;;;;5070656;28;20415;-75
2021/03/16 10:59:24;;;;;;;9.10;3.63;;;6.70;31.40;;;;;;5071100;28;20237;-75
2021/03/16 11:01:50;;;;;;;4.23;2.77;;;6.80;30.20;;;;;;5071668;28;20402;-74
2021/03/16 11:04:19;;;;;;;4.23;3.23;;;6.70;31.00;;;;;;5071636;28;20477;-77
2021/03/16 11:06:46;;;;;;;4.80;3.60;;;6.50;29.90;;;;;;5071793;28;20411;-75
2021/03/16 11:09:13;;;;;;;6.30;3.50;;;6.50;30.80;;;;;;5069982;28;20419;-75
2021/03/16 11:11:38;;;;;;;7.23;2.73;;;6.30;29.90;;;;;;5071802;28;20986;-75
2021/03/16 11:14:04;;;;;;;9.60;3.60;;;6.30;32.20;;;;;;5070571;28;20439;-74
2021/03/16 11:16:30;;;;;;;4.60;4.10;;;6.50;30.10;;;;;;5072279;28;20198;-77
2021/03/16 11:18:56;;;;;;;6.33;3.70;;;6.60;28.70;;;;;;5072067;28;20178;-75
2021/03/16 11:21:22;;;;;;;4.70;3.60;;;6.70;28.40;;;;;;5072770;28;20426;-74
2021/03/16 11:23:47;;;;;;;6.87;3.93;;;6.80;27.70;;;;;;5069995;28;20463;-75
2021/03/16 11:26:13;;;;;;;13.83;3.90;;;6.70;26.60;;;;;;5071655;28;20176;-74
2021/03/16 11:28:38;;;;;;;7.30;3.50;;;6.60;26.70;;;;;;5069767;28;20180;-75
2021/03/16 11:31:04;;;;;;;9.70;3.57;;;6.70;26.90;;;;;;5070413;28;20173;-75
2021/03/16 11:33:29;;;;;;;5.50;2.60;;;6.80;27.50;;;;;;5071009;28;20567;-75
2021/03/16 11:35:55;;;;;;;13.83;4.20;;;6.90;29.30;;;;;;5069722;28;20549;-74
2021/03/16 11:38:21;;;;;;;6.20;3.10;;;6.80;28.30;;;;;;5071379;28;20227;-75
2021/03/16 11:40:46;;;;;;;6.00;3.70;;;6.80;28.90;;;;;;5070412;28;20828;-74
2021/03/16 11:43:12;;;;;;;5.30;3.67;;;6.80;28.00;;;;;;5070688;28;20227;-75
2021/03/16 11:45:39;;;;;;;4.67;3.83;;;6.90;29.60;;;;;;5071575;28;20167;-75
2021/03/16 11:48:05;;;;;;;5.50;3.30;;;7.00;29.70;;;;;;5071056;28;20166;-74
2021/03/16 11:50:31;;;;;;;16.50;4.53;;;7.10;27.30;;;;;;5070396;28;20932;-76
2021/03/16 11:52:56;;;;;;;6.27;3.77;;;7.10;25.60;;;;;;5069659;28;20478;-75
2021/03/16 11:55:22;;;;;;;8.03;4.77;;;7.30;26.30;;;;;;5069513;28;20546;-76
2021/03/16 11:57:47;;;;;;;4.13;3.73;;;7.40;25.10;;;;;;5069419;28;20178;-76
2021/03/16 12:00:13;;;;;;;6.73;4.07;;;7.40;25.80;;;;;;5070057;28;20720;-74
2021/03/16 12:02:39;;;;;;;4.13;3.80;;;7.50;24.70;;;;;;5070627;28;20193;-74
2021/03/16 12:05:05;;;;;;;7.33;4.30;;;7.50;25.60;;;;;;5069432;28;20546;-75
2021/03/16 12:07:31;;;;;;;6.80;4.00;;;7.60;24.70;;;;;;5070866;28;20205;-76
2021/03/16 12:09:57;;;;;;;9.10;5.00;;;7.60;24.90;;;;;;5069110;28;20419;-75
2021/03/16 12:12:23;;;;;;;6.10;3.80;;;7.50;25.10;;;;;;5069046;28;20436;-76
2021/03/16 12:14:48;;;;;;;9.00;3.90;;;7.50;25.20;;;;;;5070522;28;20414;-76
2021/03/16 12:17:14;;;;;;;6.80;3.47;;;7.50;25.90;;;;;;5070513;28;20174;-76
2021/03/16 12:19:40;;;;;;;5.50;3.70;;;7.40;25.20;;;;;;5070250;28;20217;-75
2021/03/16 12:22:06;;;;;;;5.33;4.00;;;7.30;25.60;;;;;;5068987;28;20464;-75
2021/03/16 12:24:32;;;;;;;7.03;3.63;;;7.30;25.00;;;;;;5069513;28;20198;-75
2021/03/16 12:26:57;;;;;;;4.47;3.47;;;7.30;23.90;;;;;;5069065;28;20438;-74
2021/03/16 12:29:23;;;;;;;4.30;3.37;;;7.20;24.70;;;;;;5069956;28;20212;-75
2021/03/16 12:31:49;;;;;;;5.00;3.60;;;7.00;25.60;;;;;;5069081;28;20566;-74
2021/03/16 12:34:14;;;;;;;4.73;3.00;;;7.00;25.60;;;;;;5070124;28;20275;-75
2021/03/16 12:36:40;;;;;;;5.83;3.50;;;6.90;25.80;;;;;;5070480;28;20188;-74
2021/03/16 12:39:06;;;;;;;10.33;3.93;;;6.90;24.90;;;;;;5070492;28;20184;-74
2021/03/16 12:41:33;;;;;;;3.53;3.10;;;7.00;25.60;;;;;;5069306;28;20238;-74
2021/03/16 12:43:58;;;;;;;3.00;2.70;;;7.00;25.60;;;;;;5069888;28;20492;-74
2021/03/16 12:46:24;;;;;;;4.03;2.57;;;;;;;;;;5068903;28;20422;-75
2021/03/16 12:48:50;;;;;;;5.80;2.85;;;6.70;26.20;;;;;;5069729;28;20228;-75
2021/03/16 12:51:16;;;;;;;2.60;2.00;;;6.70;27.90;;;;;;5070684;28;20175;-75
2021/03/16 12:53:41;;;;;;;6.03;2.70;;;6.70;27.30;;;;;;5070595;28;20680;-75
2021/03/16 12:56:07;;;;;;;3.30;2.90;;;6.60;27.40;;;;;;5068740;28;20185;-74
2021/03/16 12:58:32;;;;;;;5.00;3.17;;;6.70;28.80;;;;;;5074824;28;20216;-75
2021/03/16 13:00:58;;;;;;;3.77;3.07;;;7.00;27.70;;;;;;5072978;28;20177;-74